Time;durP1;ratioP1;P1;durP2;ratioP2;P2;SDS_P1;SDS_P2;PMS_P1;PMS_P2;Temp;Humidity;BMP_temperature;BMP_pressure;BME280_temperature;BME280_humidity;BME280_pressure;Samples;Min_cycle;Max_cycle;Signal;HPM_P1;HPM_P2
2022/01/12 00:01:15;;;;;;;48.67;25.27;;;3.50;99.90;;;;;;5092995;28;20082;-80
2022/01/12 00:03:42;;;;;;;41.72;22.25;;;3.60;99.90;;;;;;5092825;28;20016;-81
2022/01/12 00:06:08;;;;;;;51.13;23.95;;;3.50;99.90;;;;;;5092880;28;20028;-80
2022/01/12 00:08:34;;;;;;;48.67;24.05;;;3.70;99.90;;;;;;5093046;28;20024;-80
2022/01/12 00:11:01;;;;;;;42.85;23.65;;;3.60;99.90;;;;;;5092798;28;20113;-80
2022/01/12 00:13:27;;;;;;;48.50;22.95;;;3.60;99.90;;;;;;5092897;28;20021;-80
2022/01/12 00:15:53;;;;;;;53.15;24.85;;;3.50;99.90;;;;;;5091627;28;20485;-80
2022/01/12 00:18:20;;;;;;;47.35;23.30;;;3.40;99.90;;;;;;5092772;28;20021;-80
2022/01/12 00:20:47;;;;;;;57.80;24.73;;;3.20;99.90;;;;;;5092466;28;20032;-80
2022/01/12 00:23:14;;;;;;;55.03;29.10;;;3.10;99.90;;;;;;5091407;28;20131;-80
2022/01/12 00:25:57;;;;;;;54.80;24.13;;;3.20;99.90;;;;;;5092684;28;20105;-80
2022/01/12 00:33:53;;;;;;;55.50;27.55;;;3.20;99.90;;;;;;5091082;28;20021;-82
2022/01/12 00:36:20;;;;;;;57.33;27.35;;;3.40;99.90;;;;;;5091490;28;20108;-82
2022/01/12 00:38:47;;;;;;;58.13;28.85;;;3.30;99.90;;;;;;5092407;28;20028;-81
2022/01/12 00:41:18;;;;;;;57.80;29.83;;;3.30;99.90;;;;;;5092609;28;20380;-82
2022/01/12 00:43:47;;;;;;;64.90;30.33;;;3.40;99.90;;;;;;5091358;28;20047;-82
2022/01/12 00:46:14;;;;;;;64.18;29.45;;;3.40;99.90;;;;;;5096617;28;20028;-82
2022/01/12 00:48:40;;;;;;;55.28;27.65;;;3.40;99.90;;;;;;5094864;28;20040;-82
2022/01/12 00:51:07;;;;;;;61.65;30.98;;;3.40;99.90;;;;;;5095053;28;20377;-80
2022/01/12 00:53:33;;;;;;;58.13;28.48;;;3.60;99.90;;;;;;5094975;28;20032;-81
2022/01/12 00:55:59;;;;;;;61.13;29.80;;;3.70;99.90;;;;;;5094993;28;20387;-81
2022/01/12 00:58:24;;;;;;;61.22;31.60;;;3.80;99.90;;;;;;5094926;28;20028;-81
2022/01/12 01:00:51;;;;;;;62.25;29.15;;;3.80;99.90;;;;;;5094889;28;20484;-80
2022/01/12 01:03:16;;;;;;;56.40;28.63;;;3.70;99.90;;;;;;5094475;28;20028;-81
2022/01/12 01:05:42;;;;;;;61.03;29.42;;;3.40;99.90;;;;;;5094915;28;20024;-80
2022/01/12 01:08:09;;;;;;;55.97;28.02;;;3.50;99.90;;;;;;5094942;28;20020;-80
2022/01/12 01:10:50;;;;;;;57.38;29.55;;;3.50;99.90;;;;;;5094748;28;20028;-78
2022/01/12 01:13:26;;;;;;;65.85;31.25;;;3.40;99.90;;;;;;5094717;28;20027;-79
2022/01/12 01:26:44;;;;;;;70.20;29.67;;;3.40;99.90;;;;;;5094387;28;20070;-79
2022/01/12 01:29:10;;;;;;;62.97;31.05;;;3.40;99.90;;;;;;5095546;28;20464;-74
2022/01/12 01:31:37;;;;;;;76.38;31.60;;;3.40;99.90;;;;;;5094091;28;20027;-78
2022/01/12 01:34:11;;;;;;;68.32;31.08;;;3.60;99.90;;;;;;5094203;28;20039;-79
2022/01/12 01:36:49;;;;;;;62.38;31.38;;;3.60;99.90;;;;;;5094310;28;20182;-75
2022/01/12 01:39:20;;;;;;;67.70;29.58;;;3.30;99.90;;;;;;5094022;28;20024;-79
2022/01/12 01:42:05;;;;;;;68.00;32.33;;;3.30;99.90;;;;;;5095495;28;20024;-79
2022/01/12 01:55:14;;;;;;;70.28;31.30;;;3.30;99.90;;;;;;5093246;28;20040;-78
2022/01/12 01:57:40;;;;;;;64.25;30.45;;;3.40;99.90;;;;;;5094728;28;20028;-79
2022/01/12 02:00:11;;;;;;;59.22;28.75;;;3.20;99.90;;;;;;5093551;28;20024;-79
2022/01/12 02:02:50;;;;;;;;;;;3.10;99.90;;;;;;5095647;28;20036;-75
2022/01/12 02:05:16;;;;;;;76.75;32.30;;;3.10;99.90;;;;;;5093580;28;19944;-79
2022/01/12 02:07:43;;;;;;;65.43;31.35;;;3.10;99.90;;;;;;5093786;28;20085;-76
2022/01/12 02:10:09;;;;;;;65.35;31.88;;;3.20;99.90;;;;;;5094760;28;20024;-77
2022/01/12 02:12:43;;;;;;;70.32;32.90;;;3.10;99.90;;;;;;5093633;28;20118;-73
2022/01/12 02:15:19;;;;;;;78.50;33.20;;;3.30;99.90;;;;;;5093001;28;20111;-80
2022/01/12 02:18:02;;;;;;;77.95;33.08;;;3.30;99.90;;;;;;5093588;28;20028;-76
2022/01/12 02:37:02;;;;;;;78.43;35.40;;;3.10;99.90;;;;;;5094346;28;20476;-79
2022/01/12 02:42:16;;;;;;;73.90;32.85;;;3.30;99.90;;;;;;5094192;28;20043;-79
2022/01/12 02:55:43;;;;;;;68.78;33.80;;;3.20;99.90;;;;;;5093998;28;20456;-80
2022/01/12 02:58:09;;;;;;;70.10;34.85;;;3.40;99.90;;;;;;5092286;28;20016;-80
2022/01/12 03:00:57;;;;;;;80.90;35.05;;;3.40;99.90;;;;;;5092543;28;20028;-80
2022/01/12 03:03:23;;;;;;;71.22;32.85;;;3.50;99.90;;;;;;5093718;28;20036;-79
2022/01/12 03:06:01;;;;;;;70.10;32.42;;;3.70;99.90;;;;;;5092487;28;20020;-79
2022/01/12 03:08:28;;;;;;;76.85;34.40;;;3.70;99.90;;;;;;5092064;28;20046;-79
2022/01/12 03:10:55;;;;;;;70.25;34.67;;;3.60;99.90;;;;;;5092455;28;20024;-79
2022/01/12 03:13:22;;;;;;;72.05;33.28;;;3.60;99.90;;;;;;5093482;28;20549;-79
2022/01/12 03:15:48;;;;;;;66.18;32.33;;;3.70;99.90;;;;;;5092280;28;20020;-79
2022/01/12 03:18:16;;;;;;;71.15;32.33;;;3.50;99.90;;;;;;5092324;28;20476;-79
2022/01/12 03:20:44;;;;;;;83.45;35.38;;;3.40;99.90;;;;;;5091908;28;20043;-79
2022/01/12 03:23:11;;;;;;;72.13;34.00;;;3.40;99.90;;;;;;5092234;28;20476;-79
2022/01/12 03:25:37;;;;;;;74.95;33.97;;;3.60;99.90;;;;;;5092071;28;20077;-79
2022/01/12 03:28:05;;;;;;;71.43;33.53;;;3.60;99.90;;;;;;5074949;28;20032;-79
2022/01/12 03:30:37;;;;;;;68.38;30.98;;;3.70;99.90;;;;;;5091880;28;20468;-79
2022/01/12 03:33:10;;;;;;;73.25;34.25;;;3.80;99.90;;;;;;5092146;28;20020;-79
2022/01/12 03:35:49;;;;;;;69.28;32.90;;;3.60;99.90;;;;;;5091976;28;20031;-80
2022/01/12 03:38:20;;;;;;;70.10;33.95;;;3.60;99.90;;;;;;5092035;28;20032;-79
2022/01/12 03:40:50;;;;;;;73.25;34.03;;;3.50;99.90;;;;;;5092035;28;20495;-79
2022/01/12 03:43:17;;;;;;;76.30;35.10;;;3.40;99.90;;;;;;5091652;28;20496;-78
2022/01/12 03:45:45;;;;;;;72.43;34.15;;;3.50;99.90;;;;;;5091962;28;20031;-78
2022/01/12 03:48:11;;;;;;;71.75;34.53;;;3.30;99.90;;;;;;5091748;28;20105;-79
2022/01/12 03:50:38;;;;;;;72.88;34.22;;;3.10;99.90;;;;;;5092086;28;20062;-78
2022/01/12 03:53:04;;;;;;;82.47;34.70;;;3.30;99.90;;;;;;5091688;28;20046;-78
2022/01/12 03:55:30;;;;;;;72.72;33.25;;;3.40;99.90;;;;;;5089723;28;20028;-78
2022/01/12 03:57:56;;;;;;;71.07;33.03;;;3.50;99.90;;;;;;5079076;28;20102;-79
2022/01/12 04:00:22;;;;;;;67.70;33.33;;;3.40;99.90;;;;;;5056013;28;20111;-78
2022/01/12 04:02:48;;;;;;;72.90;33.45;;;3.40;99.90;;;;;;5071507;28;20032;-79
2022/01/12 04:10:44;;;;;;;71.97;34.95;;;3.30;99.90;;;;;;5090182;28;20031;-78
2022/01/12 04:13:10;;;;;;;67.35;32.65;;;3.40;99.90;;;;;;5091684;28;20028;-78
2022/01/12 04:15:36;;;;;;;70.38;33.20;;;3.50;99.90;;;;;;5091735;28;20032;-78
2022/01/12 04:18:02;;;;;;;67.78;30.40;;;3.30;99.90;;;;;;5093085;28;20366;-78
2022/01/12 04:20:28;;;;;;;73.65;32.88;;;3.20;99.90;;;;;;5094788;28;20093;-78
2022/01/12 04:25:38;;;;;;;64.88;33.08;;;3.40;99.90;;;;;;5096657;28;20157;-79
2022/01/12 04:28:04;;;;;;;64.45;32.47;;;3.50;99.90;;;;;;5096743;28;20013;-76
2022/01/12 04:30:30;;;;;;;65.13;31.90;;;3.40;99.90;;;;;;5096730;28;20092;-79
2022/01/12 04:32:56;;;;;;;70.55;31.98;;;3.60;99.90;;;;;;5096833;28;20531;-80
2022/01/12 04:35:25;;;;;;;74.97;33.25;;;3.80;99.90;;;;;;5096723;28;20024;-79
2022/01/12 04:37:51;;;;;;;66.93;32.38;;;3.50;99.90;;;;;;5095452;28;20031;-78
2022/01/12 04:40:17;;;;;;;71.60;34.40;;;3.60;99.90;;;;;;5094989;28;20430;-78
2022/01/12 04:42:43;;;;;;;69.10;32.55;;;3.70;99.90;;;;;;5096781;28;20028;-76
2022/01/12 04:48:30;;;;;;;69.78;33.72;;;3.40;99.90;;;;;;5075871;28;20250;-77
2022/01/12 04:50:56;;;;;;;73.30;34.17;;;3.40;99.90;;;;;;5083511;28;20032;-78
2022/01/12 04:53:23;;;;;;;71.10;34.72;;;3.50;99.90;;;;;;5091556;28;20028;-78
2022/01/12 04:55:50;;;;;;;73.75;33.72;;;3.30;99.90;;;;;;5074610;28;20033;-77
2022/01/12 04:58:17;;;;;;;70.55;34.03;;;3.20;99.90;;;;;;5074638;28;20040;-78
2022/01/12 05:00:45;;;;;;;71.57;33.83;;;3.20;99.90;;;;;;5075722;28;20358;-78
2022/01/12 05:06:45;;;;;;;73.80;33.33;;;3.50;99.90;;;;;;5091097;28;20028;-77
2022/01/12 05:13:59;;;;;;;71.10;32.63;;;3.40;99.90;;;;;;5094408;28;20056;-77
2022/01/12 05:16:25;;;;;;;75.95;35.20;;;3.40;99.90;;;;;;5094664;28;20066;-78
2022/01/12 05:18:54;;;;;;;80.03;34.95;;;3.20;99.90;;;;;;5094564;28;20028;-78
2022/01/12 05:21:23;;;;;;;77.30;35.00;;;3.30;99.90;;;;;;5094600;28;20032;-78
2022/01/12 05:23:49;;;;;;;74.60;33.03;;;3.40;99.90;;;;;;5094184;28;20032;-78
2022/01/12 05:26:15;;;;;;;71.95;33.50;;;3.20;99.90;;;;;;5094454;28;20544;-78
2022/01/12 05:28:42;;;;;;;72.38;34.33;;;3.30;99.90;;;;;;5094426;28;20024;-78
2022/01/12 05:31:10;;;;;;;77.60;36.05;;;3.40;99.90;;;;;;5094382;28;20028;-78
2022/01/12 05:33:38;;;;;;;70.07;33.67;;;3.50;99.90;;;;;;5094303;28;20392;-78
2022/01/12 05:36:06;;;;;;;75.10;34.67;;;3.50;99.90;;;;;;5094276;28;20027;-79
2022/01/12 05:38:32;;;;;;;71.72;33.53;;;3.60;99.90;;;;;;5095223;28;20090;-78
2022/01/12 05:41:01;;;;;;;79.20;34.45;;;3.30;99.90;;;;;;5094371;28;20035;-78
2022/01/12 05:43:29;;;;;;;76.65;34.67;;;3.30;99.90;;;;;;5094050;28;20028;-77
2022/01/12 05:45:58;;;;;;;76.45;33.20;;;3.30;99.90;;;;;;5094213;28;20499;-77
2022/01/12 05:51:10;;;;;;;72.65;34.25;;;3.40;99.90;;;;;;5094183;28;20028;-78
2022/01/12 05:53:36;;;;;;;71.90;33.35;;;3.60;99.90;;;;;;5093585;28;20488;-77
2022/01/12 05:56:02;;;;;;;70.32;33.08;;;3.60;99.90;;;;;;5095298;28;20365;-80
2022/01/12 05:58:29;;;;;;;77.70;34.33;;;3.70;99.90;;;;;;5093820;28;20157;-77
2022/01/12 06:00:55;;;;;;;75.93;33.10;;;3.70;99.90;;;;;;5093898;28;20462;-78
2022/01/12 06:03:20;;;;;;;77.30;35.00;;;4.00;99.90;;;;;;5093829;28;20024;-78
2022/01/12 06:05:46;;;;;;;71.43;34.15;;;3.70;99.90;;;;;;5095000;28;20016;-78
2022/01/12 06:08:12;;;;;;;78.50;34.45;;;3.80;99.90;;;;;;5093276;28;20484;-78
2022/01/12 06:10:37;;;;;;;70.43;33.15;;;3.70;99.90;;;;;;5093460;28;20016;-77
2022/01/12 06:13:04;;;;;;;73.00;32.25;;;3.70;99.90;;;;;;5093641;28;20032;-78
2022/01/12 06:15:30;;;;;;;70.55;32.13;;;3.70;99.90;;;;;;5093441;28;20430;-78
2022/01/12 06:17:56;;;;;;;73.18;33.40;;;3.80;99.90;;;;;;5094765;28;20437;-78
2022/01/12 06:20:22;;;;;;;67.82;32.95;;;3.90;99.90;;;;;;5092981;28;20039;-78
2022/01/12 06:23:06;;;;;;;60.78;31.15;;;3.90;99.90;;;;;;5093585;28;20126;-78
2022/01/12 06:25:34;;;;;;;62.97;31.35;;;4.00;99.90;;;;;;5093192;28;20028;-77
2022/01/12 06:28:22;;;;;;;66.75;32.28;;;3.90;99.90;;;;;;5093630;28;20035;-77
2022/01/12 06:33:31;;;;;;;65.35;31.33;;;4.10;99.90;;;;;;5094412;28;20395;-78
2022/01/12 06:35:56;;;;;;;61.30;30.00;;;3.80;99.90;;;;;;5092805;28;20016;-80
2022/01/12 06:38:22;;;;;;;70.18;32.63;;;3.70;99.90;;;;;;5093122;28;20028;-79
2022/01/12 06:40:48;;;;;;;65.22;31.90;;;3.90;99.90;;;;;;5092852;28;20118;-78
2022/01/12 06:43:14;;;;;;;64.93;30.60;;;3.80;99.90;;;;;;5092402;28;20119;-78
2022/01/12 06:45:40;;;;;;;64.68;32.03;;;3.80;99.90;;;;;;5092788;28;20036;-78
2022/01/12 06:48:06;;;;;;;63.03;31.38;;;3.80;99.90;;;;;;5092673;28;20024;-79
2022/01/12 06:50:32;;;;;;;59.90;30.15;;;3.90;99.90;;;;;;5092416;28;20035;-80
2022/01/12 06:52:58;;;;;;;63.58;31.20;;;4.00;99.90;;;;;;5092932;28;20024;-79
2022/01/12 06:55:24;;;;;;;64.78;31.73;;;4.10;99.90;;;;;;5092665;28;20028;-78
2022/01/12 06:57:50;;;;;;;63.50;30.67;;;3.90;99.90;;;;;;5092476;28;20020;-79
2022/01/12 07:00:16;;;;;;;74.53;32.42;;;3.70;99.90;;;;;;5092446;28;20107;-78
2022/01/12 07:02:44;;;;;;;58.55;30.15;;;3.80;99.90;;;;;;5092689;28;20374;-79
2022/01/12 07:05:12;;;;;;;70.18;31.75;;;3.80;99.90;;;;;;5092197;28;20070;-79
2022/01/12 07:07:38;;;;;;;66.30;31.05;;;3.70;99.90;;;;;;5092282;28;20063;-80
2022/01/12 07:10:10;;;;;;;69.03;31.48;;;3.70;99.90;;;;;;5092309;28;20031;-78
2022/01/12 07:12:38;;;;;;;64.60;31.35;;;3.80;99.90;;;;;;5092399;28;20374;-78
2022/01/12 07:15:07;;;;;;;69.47;34.45;;;3.90;99.90;;;;;;5092466;28;20035;-78
2022/01/12 07:17:34;;;;;;;67.55;31.10;;;4.00;99.90;;;;;;5092340;28;20028;-77
2022/01/12 07:20:00;;;;;;;60.47;30.40;;;4.10;99.90;;;;;;5091759;28;20032;-76
2022/01/12 07:22:26;;;;;;;57.53;30.48;;;4.20;99.90;;;;;;5092230;28;20161;-77
2022/01/12 07:24:51;;;;;;;63.10;31.60;;;4.00;99.90;;;;;;5093517;28;20500;-77
2022/01/12 07:27:17;;;;;;;69.50;36.53;;;4.00;99.90;;;;;;5093295;28;20020;-77
2022/01/12 07:29:43;;;;;;;70.22;32.83;;;4.00;99.90;;;;;;5092123;28;20380;-76
2022/01/12 07:32:08;;;;;;;66.32;31.58;;;3.90;99.90;;;;;;5093229;28;20035;-79
2022/01/12 07:34:34;;;;;;;74.55;33.75;;;3.90;99.90;;;;;;5093310;28;20024;-78
2022/01/12 07:37:00;;;;;;;65.90;32.90;;;3.90;99.90;;;;;;5093136;28;20032;-77
2022/01/12 07:39:25;;;;;;;74.32;33.05;;;3.90;99.90;;;;;;5093347;28;20040;-77
2022/01/12 07:41:51;;;;;;;66.13;33.33;;;3.80;99.90;;;;;;5093100;28;20017;-77
2022/01/12 07:44:17;;;;;;;66.88;33.35;;;3.70;99.90;;;;;;5093600;28;20471;-77
2022/01/12 07:46:42;;;;;;;73.97;33.45;;;3.70;99.90;;;;;;5091812;28;20020;-78
2022/01/12 07:49:08;;;;;;;63.15;31.90;;;3.70;99.90;;;;;;5092782;28;20080;-78
2022/01/12 07:51:34;;;;;;;67.95;32.72;;;3.80;99.90;;;;;;5093107;28;20028;-77
2022/01/12 07:54:00;;;;;;;72.93;33.45;;;3.80;99.90;;;;;;5092176;28;20119;-78
2022/01/12 07:56:25;;;;;;;66.60;32.08;;;3.90;99.90;;;;;;5092985;28;20032;-76
2022/01/12 07:58:51;;;;;;;67.32;31.98;;;3.90;99.90;;;;;;5093157;28;20024;-78
2022/01/12 08:01:17;;;;;;;67.32;31.77;;;3.80;99.90;;;;;;5074736;28;20483;-77
2022/01/12 08:03:42;;;;;;;73.57;34.28;;;3.90;99.90;;;;;;5092604;28;20050;-76
2022/01/12 08:06:08;;;;;;;69.60;32.92;;;3.80;99.90;;;;;;5093139;28;20024;-77
2022/01/12 08:08:34;;;;;;;79.07;33.22;;;4.00;99.90;;;;;;5092954;28;20426;-77
2022/01/12 08:11:00;;;;;;;79.05;34.55;;;3.70;99.90;;;;;;5092728;28;20538;-76
2022/01/12 08:13:25;;;;;;;81.70;36.03;;;3.70;99.90;;;;;;5092771;28;20067;-75
2022/01/12 08:15:51;;;;;;;76.50;35.17;;;3.90;99.90;;;;;;5092823;28;20031;-77
2022/01/12 08:18:17;;;;;;;76.47;34.25;;;4.10;99.90;;;;;;5092580;28;20519;-76
2022/01/12 08:20:43;;;;;;;78.38;36.35;;;4.00;99.90;;;;;;5092653;28;20040;-76
2022/01/12 08:23:09;;;;;;;83.60;36.60;;;4.20;99.90;;;;;;5092597;28;20450;-78
2022/01/12 08:25:38;;;;;;;75.10;32.63;;;4.30;99.90;;;;;;5092743;28;20024;-78
2022/01/12 08:28:05;;;;;;;80.70;34.85;;;4.00;99.90;;;;;;5091402;28;20043;-78
2022/01/12 08:30:33;;;;;;;82.63;35.65;;;4.00;99.90;;;;;;5092806;28;20030;-78
2022/01/12 08:32:59;;;;;;;83.85;36.75;;;4.00;99.90;;;;;;5092264;28;20488;-78
2022/01/12 08:35:25;;;;;;;99.18;36.67;;;4.30;99.90;;;;;;5092731;28;20060;-78
2022/01/12 08:37:51;;;;;;;102.95;36.20;;;4.30;99.90;;;;;;5091538;28;20024;-77
2022/01/12 08:40:18;;;;;;;91.07;36.75;;;4.30;99.90;;;;;;5092595;28;20036;-78
2022/01/12 08:42:45;;;;;;;90.70;34.05;;;4.30;99.90;;;;;;5091376;28;20483;-77
2022/01/12 08:45:12;;;;;;;94.43;34.88;;;4.20;99.90;;;;;;5092592;28;20069;-77
2022/01/12 08:47:38;;;;;;;108.30;38.50;;;4.40;99.90;;;;;;5091033;28;20586;-78
2022/01/12 08:50:05;;;;;;;116.45;38.70;;;4.30;99.90;;;;;;5092887;28;20088;-77
2022/01/12 08:52:31;;;;;;;113.10;39.20;;;4.40;99.90;;;;;;5092427;28;20481;-78
2022/01/12 08:54:57;;;;;;;117.22;38.92;;;4.30;99.90;;;;;;5092412;28;20036;-77
2022/01/12 08:57:23;;;;;;;112.28;40.30;;;4.30;99.90;;;;;;5092362;28;20111;-78
2022/01/12 08:59:48;;;;;;;127.85;41.13;;;4.20;99.90;;;;;;5092544;28;20095;-78
2022/01/12 09:02:15;;;;;;;125.82;42.95;;;4.30;99.90;;;;;;5092361;28;20055;-78
2022/01/12 09:04:44;;;;;;;139.40;41.97;;;4.40;99.90;;;;;;5092976;28;20044;-77
2022/01/12 09:07:10;;;;;;;133.05;43.28;;;4.30;99.90;;;;;;5096419;28;20017;-77
2022/01/12 09:09:36;;;;;;;140.48;41.85;;;4.40;99.90;;;;;;5096024;28;20043;-78
2022/01/12 09:12:05;;;;;;;140.55;41.63;;;4.40;99.90;;;;;;5094856;28;20020;-79
2022/01/12 09:14:32;;;;;;;135.68;39.78;;;4.40;99.90;;;;;;5095908;28;20024;-78
2022/01/12 09:16:58;;;;;;;223.80;46.40;;;4.30;99.90;;;;;;5095512;28;20021;-78
2022/01/12 09:19:25;;;;;;;187.25;47.05;;;4.40;99.90;;;;;;5094291;28;20032;-78
2022/01/12 09:21:51;;;;;;;227.52;45.95;;;4.60;99.90;;;;;;5095965;28;20027;-78
2022/01/12 09:24:18;;;;;;;196.40;39.47;;;4.70;99.90;;;;;;5095585;28;20036;-77
2022/01/12 09:26:44;;;;;;;263.65;48.55;;;4.40;99.90;;;;;;5095718;28;20109;-78
2022/01/12 09:29:10;;;;;;;135.20;41.67;;;4.60;99.90;;;;;;5095572;28;20020;-78
2022/01/12 09:31:35;;;;;;;169.40;41.42;;;4.60;99.90;;;;;;5094257;28;20032;-78
2022/01/12 09:34:04;;;;;;;154.18;42.67;;;4.60;99.90;;;;;;5095491;28;20028;-77
2022/01/12 09:36:31;;;;;;;146.73;43.17;;;4.40;99.90;;;;;;5095538;28;20069;-78
2022/01/12 09:38:57;;;;;;;205.98;44.25;;;4.40;99.90;;;;;;5094464;28;20028;-77
2022/01/12 09:41:25;;;;;;;167.27;44.65;;;4.60;99.90;;;;;;5095404;28;20474;-77
2022/01/12 09:43:52;;;;;;;279.55;46.90;;;4.50;99.90;;;;;;5095345;28;20074;-78
2022/01/12 09:46:19;;;;;;;189.43;46.20;;;4.70;99.90;;;;;;5095066;28;20447;-78
2022/01/12 09:48:45;;;;;;;220.65;44.38;;;5.00;99.90;;;;;;5095111;28;20110;-76
2022/01/12 09:51:11;;;;;;;215.93;42.30;;;4.60;99.90;;;;;;5095237;28;20028;-77
2022/01/12 09:53:38;;;;;;;199.70;40.92;;;4.60;99.90;;;;;;5095140;28;20026;-78
2022/01/12 09:56:18;;;;;;;192.32;44.95;;;4.50;99.90;;;;;;5095173;28;20032;-77
2022/01/12 09:58:51;;;;;;;232.30;42.70;;;4.60;99.90;;;;;;5093486;28;20078;-78
2022/01/12 10:01:27;;;;;;;167.27;41.72;;;4.70;99.90;;;;;;5093766;28;20449;-77
2022/01/12 10:03:52;;;;;;;168.55;42.33;;;4.80;99.90;;;;;;5094808;28;20032;-77
2022/01/12 10:06:18;;;;;;;182.63;43.30;;;4.80;99.90;;;;;;5094764;28;20403;-77
2022/01/12 10:08:44;;;;;;;198.98;45.20;;;4.90;99.90;;;;;;5094787;28;20099;-78
2022/01/12 10:11:12;;;;;;;227.68;44.95;;;5.10;99.90;;;;;;5094840;28;20530;-77
2022/01/12 10:13:41;;;;;;;201.93;43.50;;;5.00;99.90;;;;;;5093572;28;20028;-78
2022/01/12 10:16:12;;;;;;;177.90;42.63;;;5.00;99.90;;;;;;5094147;28;20110;-77
2022/01/12 10:18:46;;;;;;;243.27;47.75;;;4.90;99.90;;;;;;5094346;28;20115;-77
2022/01/12 10:21:23;;;;;;;220.63;47.53;;;5.20;99.90;;;;;;5094780;28;20128;-78
2022/01/12 10:23:58;;;;;;;180.88;47.50;;;5.00;99.90;;;;;;5094549;28;20058;-78
2022/01/12 10:26:34;;;;;;;168.02;46.30;;;5.10;99.90;;;;;;5094295;28;20028;-78
2022/01/12 10:29:13;;;;;;;172.50;48.38;;;5.10;99.90;;;;;;5093095;28;20055;-78
2022/01/12 10:31:47;;;;;;;155.88;47.13;;;5.20;99.90;;;;;;5093313;28;20481;-79
2022/01/12 10:34:14;;;;;;;283.48;54.92;;;5.20;99.90;;;;;;5094563;28;20078;-77
2022/01/12 10:36:42;;;;;;;176.55;51.97;;;5.40;99.90;;;;;;5094290;28;20031;-78
2022/01/12 10:39:10;;;;;;;228.05;55.17;;;5.60;99.90;;;;;;5094293;28;20103;-78
2022/01/12 10:41:41;;;;;;;261.10;57.97;;;5.70;99.90;;;;;;5094249;28;20468;-79
2022/01/12 10:44:06;;;;;;;199.57;55.28;;;6.10;99.90;;;;;;5094002;28;20040;-78
2022/01/12 10:46:32;;;;;;;177.77;55.67;;;5.80;99.90;;;;;;5093897;28;20028;-78
2022/01/12 10:48:58;;;;;;;172.20;55.28;;;5.50;99.90;;;;;;5093973;28;20115;-79
2022/01/12 10:51:29;;;;;;;172.13;51.05;;;5.40;99.90;;;;;;5094231;28;20036;-78
2022/01/12 10:54:04;;;;;;;181.07;54.00;;;5.20;99.90;;;;;;5094129;28;20111;-77
2022/01/12 10:56:30;;;;;;;186.38;56.60;;;5.20;99.90;;;;;;5093872;28;20024;-78
2022/01/12 10:58:57;;;;;;;211.48;58.70;;;5.40;99.90;;;;;;5093660;28;20538;-79
2022/01/12 11:01:26;;;;;;;194.55;59.25;;;5.50;99.90;;;;;;5093944;28;20032;-77
2022/01/12 11:03:52;;;;;;;190.02;62.42;;;5.70;99.90;;;;;;5093639;28;20028;-77
2022/01/12 11:06:19;;;;;;;197.55;62.40;;;5.90;99.90;;;;;;5093659;28;20384;-78
2022/01/12 11:08:48;;;;;;;191.93;62.97;;;6.00;99.90;;;;;;5093752;28;20134;-78
2022/01/12 11:11:17;;;;;;;194.45;62.25;;;5.70;99.90;;;;;;5093245;28;20557;-78
2022/01/12 11:13:45;;;;;;;183.35;63.50;;;5.90;99.90;;;;;;5093750;28;20024;-77
2022/01/12 11:16:11;;;;;;;178.20;63.83;;;6.10;99.90;;;;;;5093458;28;20016;-79
2022/01/12 11:18:40;;;;;;;174.75;63.08;;;6.40;99.90;;;;;;5093434;28;20086;-78
2022/01/12 11:21:48;;;;;;;175.43;63.63;;;6.60;99.90;;;;;;5093253;28;20135;-78
2022/01/12 11:24:15;;;;;;;178.60;61.70;;;6.50;99.90;;;;;;5093221;28;20046;-78
2022/01/12 11:26:52;;;;;;;169.13;58.83;;;6.10;99.90;;;;;;5092827;28;20380;-79
2022/01/12 11:29:25;;;;;;;175.85;61.10;;;6.30;99.90;;;;;;5093285;28;20109;-78
2022/01/12 11:31:51;;;;;;;196.05;66.60;;;6.60;99.90;;;;;;5093076;28;20035;-78
2022/01/12 11:34:19;;;;;;;198.23;66.13;;;6.70;99.90;;;;;;5093402;28;20108;-79
2022/01/12 11:36:44;;;;;;;193.13;66.75;;;6.90;99.90;;;;;;5092972;28;20035;-79
2022/01/12 11:39:16;;;;;;;185.70;64.20;;;6.90;99.90;;;;;;5093337;28;20038;-79
2022/01/12 11:41:43;;;;;;;;;;;6.40;99.90;;;;;;5092077;28;20380;-77
2022/01/12 11:44:20;;;;;;;194.55;64.60;;;6.60;99.90;;;;;;5092700;28;19912;-77
2022/01/12 11:46:51;;;;;;;178.15;62.88;;;6.30;99.90;;;;;;5092913;28;20123;-76
2022/01/12 11:49:45;;;;;;;198.57;64.43;;;6.20;99.90;;;;;;5092900;28;20547;-79
2022/01/12 11:52:19;;;;;;;181.05;62.92;;;6.20;99.90;;;;;;5091952;28;20048;-77
2022/01/12 11:54:47;;;;;;;179.20;59.17;;;5.90;99.90;;;;;;5092877;28;20028;-78
2022/01/12 11:57:20;;;;;;;193.77;61.58;;;5.80;99.90;;;;;;5092616;28;20044;-78
2022/01/12 11:59:56;;;;;;;187.52;60.70;;;5.80;99.90;;;;;;5093338;28;20064;-78
2022/01/12 12:02:49;;;;;;;192.48;61.85;;;5.90;99.90;;;;;;5092985;28;20090;-77
2022/01/12 12:05:20;;;;;;;188.57;60.75;;;5.80;99.90;;;;;;5091823;28;20131;-78
2022/01/12 12:08:04;;;;;;;178.07;59.40;;;5.80;99.90;;;;;;5092671;28;20039;-78
2022/01/12 12:10:36;;;;;;;191.68;64.82;;;5.60;99.90;;;;;;5092407;28;20039;-79
2022/01/12 12:13:04;;;;;;;192.05;62.97;;;5.70;99.90;;;;;;5092655;28;20477;-78
2022/01/12 12:15:29;;;;;;;190.93;66.80;;;5.70;99.90;;;;;;5091455;28;20601;-76
2022/01/12 12:18:00;;;;;;;183.63;63.78;;;5.80;99.90;;;;;;5092759;28;20032;-78
2022/01/12 12:20:26;;;;;;;201.65;67.97;;;5.80;99.90;;;;;;5092480;28;20123;-79
2022/01/12 12:22:52;;;;;;;203.77;68.40;;;5.90;99.90;;;;;;5092563;28;20024;-79
2022/01/12 12:25:25;;;;;;;189.15;67.70;;;5.90;99.90;;;;;;5092392;28;20055;-78
2022/01/12 12:27:53;;;;;;;196.70;67.35;;;6.10;99.90;;;;;;5072282;28;20040;-80
2022/01/12 12:30:21;;;;;;;194.85;69.72;;;6.10;99.90;;;;;;5071204;28;20035;-80
2022/01/12 12:32:55;;;;;;;210.43;67.07;;;6.20;99.90;;;;;;5071559;28;20469;-80
2022/01/12 12:35:26;;;;;;;229.85;70.50;;;6.30;99.90;;;;;;5072521;28;20499;-80
2022/01/12 12:37:57;;;;;;;208.02;71.03;;;6.30;99.90;;;;;;5073540;28;20029;-80
2022/01/12 12:40:25;;;;;;;208.98;68.45;;;6.10;99.90;;;;;;5073399;28;20075;-80
2022/01/12 12:43:25;;;;;;;212.48;73.22;;;6.40;99.90;;;;;;5074896;28;20492;-80
2022/01/12 12:45:56;;;;;;;236.25;75.03;;;6.70;99.90;;;;;;5074937;28;20481;-80
2022/01/12 12:48:25;;;;;;;245.25;77.13;;;6.70;99.90;;;;;;5077232;28;20481;-80
2022/01/12 12:51:00;;;;;;;228.32;77.25;;;6.60;99.90;;;;;;5075318;28;20065;-79
2022/01/12 12:53:31;;;;;;;226.48;75.25;;;6.70;99.90;;;;;;5075779;28;20033;-80
2022/01/12 12:55:58;;;;;;;233.67;76.80;;;6.70;99.90;;;;;;5057974;28;20039;-80
2022/01/12 12:58:28;;;;;;;226.65;74.35;;;6.80;99.90;;;;;;5074684;28;20365;-80
2022/01/12 13:01:04;;;;;;;230.90;75.45;;;6.80;99.90;;;;;;5076101;28;20470;-76
2022/01/12 13:03:30;;;;;;;222.45;77.18;;;7.00;99.90;;;;;;5075713;28;20124;-80
2022/01/12 13:05:56;;;;;;;225.13;74.40;;;7.10;99.90;;;;;;5074785;28;20067;-81
2022/01/12 13:08:21;;;;;;;221.52;73.55;;;7.30;99.90;;;;;;5075587;28;20036;-80
2022/01/12 13:10:47;;;;;;;212.50;72.43;;;7.10;99.90;;;;;;5092733;28;20044;-80
2022/01/12 13:13:13;;;;;;;214.75;69.80;;;6.70;99.90;;;;;;5096837;28;20047;-79
2022/01/12 13:15:42;;;;;;;226.57;75.60;;;6.40;99.90;;;;;;5099858;28;20119;-80
2022/01/12 13:18:14;;;;;;;217.88;70.55;;;6.50;99.90;;;;;;5096161;28;20103;-80
2022/01/12 13:23:31;;;;;;;223.70;74.00;;;6.80;99.90;;;;;;5095372;28;20050;-80
2022/01/12 13:26:01;;;;;;;202.77;70.32;;;6.70;99.90;;;;;;5095797;28;20070;-80
2022/01/12 13:28:27;;;;;;;229.00;70.70;;;6.60;99.90;;;;;;5095665;28;20104;-78
2022/01/12 13:30:58;;;;;;;231.15;74.38;;;6.70;99.90;;;;;;5098092;28;20032;-74
2022/01/12 13:33:26;;;;;;;253.73;76.95;;;7.00;99.90;;;;;;5101432;28;20053;-78
2022/01/12 13:35:52;;;;;;;233.75;77.22;;;7.10;99.90;;;;;;5095730;28;20489;-80
2022/01/12 13:38:32;;;;;;;222.10;72.53;;;7.30;99.90;;;;;;5095595;28;20484;-80
2022/01/12 13:41:28;;;;;;;222.27;74.22;;;7.30;99.90;;;;;;5094518;28;20117;-80
2022/01/12 13:44:11;;;;;;;214.05;73.20;;;7.20;99.90;;;;;;5090546;28;20120;-78
2022/01/12 13:46:42;;;;;;;224.80;74.43;;;7.20;99.90;;;;;;5095368;28;20042;-78
2022/01/12 13:51:42;;;;;;;257.02;76.18;;;6.60;99.90;;;;;;5094854;28;20062;-80
2022/01/12 13:54:09;;;;;;;226.80;72.55;;;6.80;99.90;;;;;;5093939;28;20028;-80
2022/01/12 13:56:45;;;;;;;238.77;75.00;;;6.80;99.90;;;;;;5095200;28;20031;-80
2022/01/12 13:59:13;;;;;;;231.70;75.18;;;6.80;99.90;;;;;;5095092;28;20385;-80
2022/01/12 14:01:41;;;;;;;240.98;74.68;;;6.60;99.90;;;;;;5095220;28;20032;-80
2022/01/12 14:04:14;;;;;;;240.13;73.22;;;6.60;99.90;;;;;;5094751;28;20044;-80
2022/01/12 14:06:45;;;;;;;233.65;74.35;;;6.20;99.90;;;;;;5094781;28;20020;-80
2022/01/12 14:09:22;;;;;;;254.95;74.80;;;6.10;99.90;;;;;;5093513;28;20031;-80